createdAt,value
2024-02-03T09:01:28.137Z,50.00
2024-02-03T09:02:01.137Z,50.00
2024-02-03T09:03:01.142Z,50.00
2024-02-03T09:04:01.218Z,50.00
2024-02-03T09:05:01.137Z,50.00
2024-02-03T09:06:01.249Z,50.00
2024-02-03T09:07:01.141Z,36.34
2024-02-03T09:08:01.368Z,15.54
2024-02-03T09:09:01.096Z,5.67
2024-02-03T09:10:01.580Z,0.00
2024-02-03T09:11:01.139Z,0.00
2024-02-03T09:12:01.223Z,0.00
2024-02-03T09:13:01.102Z,0.09
2024-02-03T09:14:01.101Z,2.60
2024-02-03T09:15:01.106Z,11.16
2024-02-03T09:16:01.178Z,21.53
2024-02-03T09:17:02.828Z,29.96
2024-02-03T09:18:01.401Z,41.37
2024-02-03T09:19:01.307Z,50.00
2024-02-03T09:20:01.260Z,50.00
2024-02-03T09:21:01.099Z,50.00
2024-02-03T09:22:01.258Z,50.00
2024-02-03T09:23:01.167Z,50.00
2024-02-03T09:24:01.117Z,50.50
2024-02-03T09:25:01.125Z,50.00
2024-02-03T09:26:01.138Z,51.35
2024-02-03T09:27:01.175Z,50.53
2024-02-03T09:28:01.128Z,52.51
2024-02-03T09:29:01.163Z,51.81
2024-02-03T09:30:01.138Z,50.25
2024-02-03T09:31:01.211Z,52.35
2024-02-03T09:32:01.126Z,51.31
2024-02-03T09:33:08.578Z,50.00
2024-02-03T09:34:08.615Z,50.00
2024-02-03T09:35:08.551Z,50.00
2024-02-03T09:36:08.459Z,50.00
2024-02-03T09:38:08.534Z,51.21
2024-02-03T09:39:08.499Z,51.99
2024-02-03T09:40:08.479Z,50.00
2024-02-03T09:41:08.499Z,50.92
2024-02-03T09:42:08.515Z,54.01
2024-02-03T09:43:08.488Z,54.06
2024-02-03T09:44:08.540Z,51.30
2024-02-03T09:45:08.531Z,50.49
2024-02-03T09:46:08.478Z,51.53
2024-02-03T09:47:08.520Z,50.23
2024-02-03T09:48:08.538Z,51.04
2024-02-03T09:49:08.570Z,55.58
2024-02-03T09:50:08.555Z,51.94
2024-02-03T09:51:09.811Z,53.14
2024-02-03T09:52:08.519Z,52.25
2024-02-03T09:53:08.536Z,55.50
2024-02-03T09:54:08.523Z,51.36
2024-02-03T09:55:08.515Z,50.29
2024-02-03T09:56:08.523Z,52.57
2024-02-03T09:57:08.517Z,50.00
2024-02-03T09:58:08.548Z,51.41
2024-02-03T09:59:08.533Z,50.42
2024-02-03T10:00:08.514Z,52.92
2024-02-03T10:01:08.641Z,51.31
2024-02-03T10:02:08.513Z,53.62
2024-02-03T10:03:08.552Z,50.00
2024-02-03T10:04:08.611Z,50.73
2024-02-03T10:05:08.592Z,52.25
2024-02-03T10:06:08.570Z,51.37
2024-02-03T10:07:08.714Z,52.52
2024-02-03T10:08:08.568Z,53.04
2024-02-03T10:09:08.605Z,52.62
2024-02-03T10:11:08.673Z,52.60
2024-02-03T10:12:08.535Z,51.72
2024-02-03T10:13:08.565Z,50.64
2024-02-03T10:14:08.569Z,55.14
2024-02-03T10:15:08.665Z,53.85
2024-02-03T10:16:08.621Z,51.35
2024-02-03T10:17:08.542Z,50.63
2024-02-03T10:18:09.136Z,51.33
2024-02-03T10:19:08.597Z,50.84
2024-02-03T10:20:09.050Z,51.81
2024-02-03T10:21:08.599Z,51.21
2024-02-03T10:22:08.586Z,50.00
2024-02-03T10:23:08.679Z,51.14
2024-02-03T10:24:08.561Z,54.03
2024-02-03T10:25:08.573Z,51.11
2024-02-03T10:26:08.612Z,53.42
2024-02-03T10:27:08.578Z,52.91
2024-02-03T10:28:08.587Z,50.80
2024-02-03T10:29:08.592Z,54.49
2024-02-03T10:30:08.582Z,54.20
2024-02-03T10:31:08.666Z,51.27
2024-02-03T10:32:08.575Z,52.65
2024-02-03T10:33:08.624Z,53.23
2024-02-03T10:34:08.690Z,51.56
2024-02-03T10:35:08.652Z,54.38
2024-02-03T10:36:08.561Z,53.13
2024-02-03T10:37:08.690Z,53.73
2024-02-03T10:38:08.634Z,52.93
2024-02-03T10:39:08.606Z,52.51
2024-02-03T10:40:08.634Z,56.63
2024-02-03T10:41:08.595Z,54.22
2024-02-03T10:42:08.629Z,53.03
2024-02-03T10:43:08.625Z,54.13
2024-02-03T10:44:08.591Z,54.23
2024-02-03T10:45:08.638Z,54.99
2024-02-03T10:46:08.763Z,53.64
2024-02-03T10:47:08.612Z,54.29
2024-02-03T10:48:08.668Z,53.72
2024-02-03T10:49:08.686Z,55.45
2024-02-03T10:50:08.693Z,54.53
2024-02-03T10:51:08.615Z,54.72
2024-02-03T10:52:08.665Z,55.10
2024-02-03T10:53:08.659Z,55.52
2024-02-03T10:54:08.624Z,54.49
2024-02-03T10:55:08.635Z,54.63
2024-02-03T10:56:08.638Z,57.00
2024-02-03T10:57:08.622Z,53.85
2024-02-03T10:58:08.608Z,55.60
2024-02-03T10:59:08.631Z,53.94
2024-02-03T11:00:08.640Z,53.80
2024-02-03T11:01:08.755Z,54.35
2024-02-03T11:02:08.619Z,55.13
2024-02-03T11:03:08.656Z,55.77
2024-02-03T11:04:08.705Z,55.08
2024-02-03T11:05:08.654Z,54.33
2024-02-03T11:06:08.690Z,57.12
2024-02-03T11:07:08.665Z,55.83
2024-02-03T11:08:08.645Z,54.25
2024-02-03T11:09:08.644Z,55.67
2024-02-03T11:10:08.650Z,57.51
2024-02-03T11:11:08.621Z,56.07
2024-02-03T11:12:08.673Z,55.22
2024-02-03T11:13:08.678Z,54.80
2024-02-03T11:14:08.652Z,55.04
2024-02-03T11:15:08.688Z,56.16
2024-02-03T11:16:08.906Z,57.55
2024-02-03T11:17:08.660Z,55.93
2024-02-03T11:18:08.702Z,56.55
2024-02-03T11:19:08.794Z,55.28
2024-02-03T11:20:08.777Z,56.41
2024-02-03T11:21:08.704Z,57.24
2024-02-03T11:22:08.669Z,57.40
2024-02-03T11:23:08.667Z,53.84
2024-02-03T11:24:08.692Z,56.25
2024-02-03T11:25:08.689Z,55.71
2024-02-03T11:26:08.837Z,58.10
2024-02-03T11:27:08.819Z,55.63
2024-02-03T11:28:08.904Z,52.97
2024-02-03T11:29:08.946Z,56.56
2024-02-03T11:30:09.029Z,55.60
2024-02-03T11:31:09.092Z,55.42
2024-02-03T11:32:09.156Z,55.20
2024-02-03T11:33:09.251Z,54.87
2024-02-03T11:34:09.360Z,54.83
2024-02-03T11:35:09.328Z,56.51
2024-02-03T11:36:09.385Z,54.66
2024-02-03T11:37:09.395Z,55.20
2024-02-03T11:38:09.470Z,56.29
2024-02-03T11:39:09.489Z,54.25
2024-02-03T11:40:09.562Z,57.13
2024-02-03T11:41:09.616Z,55.27
2024-02-03T11:42:09.624Z,55.85
2024-02-03T11:43:09.641Z,54.84
2024-02-03T11:44:09.729Z,57.83
2024-02-03T11:45:09.757Z,55.08
2024-02-03T11:46:09.827Z,55.30
2024-02-03T11:47:09.972Z,56.64
2024-02-03T11:48:09.943Z,55.86
2024-02-03T11:49:09.985Z,55.22
2024-02-03T11:50:09.981Z,55.39
2024-02-03T11:51:10.029Z,54.14
2024-02-03T11:52:10.020Z,54.55
2024-02-03T11:53:10.067Z,55.55
2024-02-03T11:54:10.097Z,54.21
2024-02-03T11:55:10.197Z,55.21
2024-02-03T11:56:10.192Z,53.95
2024-02-03T11:57:10.223Z,55.90
2024-02-03T11:58:10.266Z,55.57
2024-02-03T11:59:11.572Z,55.22
2024-02-03T12:00:10.355Z,56.24
2024-02-03T12:01:10.478Z,56.46
2024-02-03T12:02:10.427Z,53.02
2024-02-03T12:03:10.523Z,56.22
2024-02-03T12:04:10.574Z,55.29
2024-02-03T12:05:14.143Z,55.40
2024-02-03T12:06:10.508Z,55.44
2024-02-03T12:07:10.575Z,55.50
2024-02-03T12:08:10.544Z,55.38
2024-02-03T12:09:10.505Z,54.71
2024-02-03T12:10:10.572Z,54.05
2024-02-03T12:11:12.742Z,55.15
2024-02-03T12:12:10.540Z,55.20
2024-02-03T12:13:10.624Z,55.51
2024-02-03T12:14:10.558Z,53.01
2024-02-03T12:15:10.528Z,54.44
2024-02-03T12:16:10.561Z,53.57
2024-02-03T12:17:12.465Z,53.80
2024-02-03T12:18:10.622Z,53.85
2024-02-03T12:19:10.590Z,54.01
2024-02-03T12:20:10.510Z,54.44
2024-02-03T12:21:10.543Z,54.26
2024-02-03T12:22:10.548Z,55.65
2024-02-03T12:23:16.555Z,55.52
2024-02-03T12:24:11.513Z,55.23
2024-02-03T12:25:10.501Z,54.20
2024-02-03T12:26:10.553Z,54.32
2024-02-03T12:27:10.502Z,55.74
2024-02-03T12:28:10.577Z,53.88
2024-02-03T12:29:10.530Z,55.76
2024-02-03T12:30:10.530Z,55.88
2024-02-03T12:31:10.556Z,56.36
2024-02-03T12:32:10.543Z,54.16
2024-02-03T12:33:10.737Z,54.73
2024-02-03T12:34:10.593Z,54.17
2024-02-03T12:35:10.650Z,54.67
2024-02-03T12:36:10.536Z,56.11
2024-02-03T12:37:10.667Z,58.03
2024-02-03T12:38:10.535Z,56.00
2024-02-03T12:39:10.685Z,55.67
2024-02-03T12:40:10.631Z,55.81
2024-02-03T12:41:10.656Z,55.83
2024-02-03T12:42:10.713Z,56.86
2024-02-03T12:43:10.745Z,55.50
2024-02-03T12:44:10.691Z,56.38
2024-02-03T12:45:10.744Z,57.70
2024-02-03T12:46:10.820Z,56.17
2024-02-03T12:47:10.875Z,55.72
2024-02-03T12:48:10.963Z,57.71
2024-02-03T12:49:11.137Z,56.96
2024-02-03T12:50:11.319Z,57.70
2024-02-03T12:51:11.064Z,55.08
2024-02-03T12:52:11.004Z,57.78
2024-02-03T12:53:11.074Z,57.41
2024-02-03T12:54:11.128Z,57.00
2024-02-03T12:55:11.185Z,58.71
2024-02-03T12:56:11.243Z,56.33
2024-02-03T12:57:11.219Z,59.86
2024-02-03T12:58:11.281Z,58.60
2024-02-03T12:59:11.308Z,58.99
2024-02-03T13:00:11.381Z,59.46
2024-02-03T13:01:11.541Z,59.24
2024-02-03T13:02:11.427Z,60.61
2024-02-03T13:03:11.478Z,59.60
2024-02-03T13:04:11.583Z,61.21
2024-02-03T13:05:12.892Z,60.54
2024-02-03T13:06:11.637Z,61.48
2024-02-03T13:07:11.520Z,60.03
2024-02-03T13:08:11.611Z,59.68
2024-02-03T13:09:11.449Z,60.75
2024-02-03T13:10:11.493Z,61.11
2024-02-03T13:11:13.250Z,60.55
2024-02-03T13:12:11.474Z,60.66
2024-02-03T13:13:11.466Z,60.84
2024-02-03T13:14:11.487Z,61.63
2024-02-03T13:15:11.438Z,61.59
2024-02-03T13:16:11.522Z,61.73
2024-02-03T13:17:12.561Z,64.65
2024-02-03T13:18:11.470Z,62.07
2024-02-03T13:19:11.576Z,62.17
2024-02-03T13:20:11.593Z,61.94
2024-02-03T13:21:11.509Z,62.59
2024-02-03T13:22:11.490Z,62.75
2024-02-03T13:23:11.499Z,61.84
2024-02-03T13:24:11.548Z,62.98
2024-02-03T13:25:11.468Z,62.17
2024-02-03T13:26:11.623Z,64.24
2024-02-03T13:27:11.519Z,61.72
2024-02-03T13:28:11.562Z,61.60
2024-02-03T13:29:11.866Z,62.42
2024-02-03T13:30:11.495Z,64.50
2024-02-03T13:31:11.508Z,63.45
2024-02-03T13:32:11.418Z,61.25
2024-02-03T13:33:11.647Z,62.03
2024-02-03T13:34:15.355Z,62.39
2024-02-03T13:35:12.563Z,62.53
2024-02-03T13:36:11.582Z,62.80
2024-02-03T13:37:11.476Z,62.60
2024-02-03T13:38:11.515Z,63.24
2024-02-03T13:39:11.476Z,63.28
2024-02-03T13:40:11.605Z,65.01
2024-02-03T13:41:11.487Z,63.30
2024-02-03T13:42:11.498Z,64.95
2024-02-03T13:43:11.487Z,65.16
2024-02-03T13:44:11.518Z,63.19
2024-02-03T13:45:11.495Z,64.12
2024-02-03T13:46:11.616Z,64.47
2024-02-03T13:47:11.504Z,63.65
2024-02-03T13:48:11.640Z,63.63
2024-02-03T13:49:11.656Z,65.22
2024-02-03T13:50:11.514Z,64.95
2024-02-03T13:51:11.498Z,64.81
2024-02-03T13:52:11.586Z,64.66
2024-02-03T13:53:11.517Z,64.30
2024-02-03T13:54:11.531Z,63.99
2024-02-03T13:55:11.586Z,64.22
2024-02-03T13:56:11.655Z,65.79
2024-02-03T13:57:11.676Z,64.44
2024-02-03T13:58:11.716Z,66.19
2024-02-03T13:59:11.800Z,66.38
2024-02-03T14:00:11.800Z,65.78
